Briefing drone pour Thones

Rechercher une autre localisation

Conditions de vol :


Nous sommes le : Mardi 09 mars 2021
Il est 00:33 UTC (01:33 LT)

Lever de soleil : 05:31 UTC (06:31 LT)
Coucher de soleil : 17:58 UTC (18:58 LT)

Météo

L'essentiel des conditions de vol

VIGILANCE MÉTÉO FRANCE - Haute-Savoie (74)
Pas de vigilances particulieres
CARTE TEMSI
CARTES DES FRONTS
METAR de LFLP
LFLP 090000Z AUTO VRB02KT 9999 FEW082 04/01 Q1016

Date d'émission: 09/03/2021
Heure d'émission: 00:00 UTC
Vent: Variable 2 KT (4 km/h)
Visibilité horizontale: > 10 km
Plafond :
- Peu de nuages à 8200ft (2499m)
Température: 4 °C
Point de rosée: 1 °C
Humidité: 81%
Pression (QNH): 1016 hPa
TAF de LFLP
AMD LFLP 082002Z 0820/0915 CNL

Conditions prévues :

Heure d'émission : Bulletin éffectué le 08 à 20:00 UTC
Prévision : Valide du 08 a 20:00 UTC au 09 a 15:00 UTC
Nuages : à 0ft (0 m)
WEBCAM POUR THONES

Réglementation

Voler en sécurité

CARTES AERONAUTIQUE 1/500.000
CARTES VAC (LFLP)
SUP AIP




Chargement des AIP...
NOTAM (THONES + Terrain à proximité / FIR )




Chargement des NOTAMS...
CONTACT PREFECTURE 74


Avertissement : Les données mises à disposition sont indicatives. Oxygène Drone ne pourra être tenu responsable de dégâts causés aux biens et aux personnes.